Time;durP1;ratioP1;P1;durP2;ratioP2;P2;SDS_P1;SDS_P2;PMS_P1;PMS_P2;Temp;Humidity;BMP_temperature;BMP_pressure;BME280_temperature;BME280_humidity;BME280_pressure;Samples;Min_cycle;Max_cycle;Signal;HPM_P1;HPM_P2
2023/06/19 00:00:15;;;;;;;;;;;27.00;46.20;;;;;;5060086;28;19975;-81
2023/06/19 00:02:42;;;;;;;;;;;27.00;46.20;;;;;;5058869;28;19933;-80
2023/06/19 00:05:09;;;;;;;;;;;27.00;46.20;;;;;;5056825;28;20406;-80
2023/06/19 00:07:36;;;;;;;;;;;27.00;46.30;;;;;;5055944;28;19986;-80
2023/06/19 00:10:03;;;;;;;;;;;27.00;46.30;;;;;;5059831;28;19951;-80
2023/06/19 00:12:30;;;;;;;;;;;27.00;46.40;;;;;;5060129;28;19950;-81
2023/06/19 00:14:57;;;;;;;;;;;26.90;46.40;;;;;;5060606;28;19928;-80
2023/06/19 00:17:26;;;;;;;;;;;26.90;46.40;;;;;;5053742;28;19935;-80
2023/06/19 00:19:52;;;;;;;;;;;26.90;46.40;;;;;;5054818;28;19933;-79
2023/06/19 00:22:19;;;;;;;;;;;26.90;46.50;;;;;;5054422;28;19929;-81
2023/06/19 00:24:46;;;;;;;;;;;26.80;46.60;;;;;;5053240;28;19928;-80
2023/06/19 00:27:12;;;;;;;;;;;26.80;46.70;;;;;;5059462;28;19932;-79
2023/06/19 00:29:39;;;;;;;;;;;26.80;46.80;;;;;;5060002;28;19946;-79
2023/06/19 00:32:07;;;;;;;;;;;26.70;46.70;;;;;;5059635;28;19933;-79
2023/06/19 00:34:34;;;;;;;;;;;26.80;46.70;;;;;;5051643;28;19935;-79
2023/06/19 00:37:00;;;;;;;;;;;26.70;46.70;;;;;;5055745;28;20310;-82
2023/06/19 00:39:27;;;;;;;;;;;26.70;46.70;;;;;;5054169;28;20497;-80
2023/06/19 00:41:54;;;;;;;;;;;26.70;46.80;;;;;;5058544;28;20038;-79
2023/06/19 00:44:21;;;;;;;;;;;26.60;46.80;;;;;;5056036;28;19987;-79
2023/06/19 00:46:47;;;;;;;;;;;26.60;46.90;;;;;;5055531;28;19929;-80
2023/06/19 00:49:16;;;;;;;;;;;26.60;47.00;;;;;;5057737;28;19940;-79
2023/06/19 00:51:42;;;;;;;;;;;26.60;47.10;;;;;;5055253;28;19958;-82
2023/06/19 00:54:09;;;;;;;;;;;26.50;47.20;;;;;;5049571;28;19951;-79
2023/06/19 00:56:37;;;;;;;;;;;26.50;47.30;;;;;;5052798;28;19989;-81
2023/06/19 00:59:07;;;;;;;;;;;26.50;47.40;;;;;;5049123;28;20903;-79
2023/06/19 01:01:33;;;;;;;;;;;26.40;47.40;;;;;;5050581;28;19933;-79
2023/06/19 01:04:00;;;;;;;;;;;26.40;47.60;;;;;;5046537;28;19933;-79
2023/06/19 01:06:37;;;;;;;;;;;26.40;47.70;;;;;;5046049;28;19928;-78
2023/06/19 01:09:06;;;;;;;;;;;26.40;47.80;;;;;;5048357;28;19982;-79
2023/06/19 01:11:34;;;;;;;;;;;26.30;48.00;;;;;;5047057;28;19939;-78
2023/06/19 01:14:04;;;;;;;;;;;26.30;48.10;;;;;;5045085;28;19985;-78
2023/06/19 01:16:30;;;;;;;;;;;26.30;48.20;;;;;;5047095;28;19932;-78
2023/06/19 01:18:57;;;;;;;;;;;26.20;48.30;;;;;;5049266;28;19934;-79
2023/06/19 01:21:24;;;;;;;;;;;26.20;48.50;;;;;;5047404;28;19970;-78
2023/06/19 01:23:52;;;;;;;;;;;26.20;48.70;;;;;;5049007;28;20695;-80
2023/06/19 01:26:19;;;;;;;;;;;26.20;48.80;;;;;;5055936;28;19951;-79
2023/06/19 01:28:46;;;;;;;;;;;26.20;48.90;;;;;;5047875;28;20210;-79
2023/06/19 01:31:14;;;;;;;;;;;26.10;49.00;;;;;;5051231;28;20394;-79
2023/06/19 01:33:41;;;;;;;;;;;26.10;49.10;;;;;;5054655;28;19939;-79
2023/06/19 01:36:08;;;;;;;;;;;26.00;49.20;;;;;;5050449;28;20354;-79
2023/06/19 01:38:35;;;;;;;;;;;26.00;49.30;;;;;;5054419;28;19936;-79
2023/06/19 01:41:04;;;;;;;;;;;26.00;49.50;;;;;;5050087;28;19928;-80
2023/06/19 01:43:31;;;;;;;;;;;26.00;49.70;;;;;;5054296;28;19971;-79
2023/06/19 01:45:58;;;;;;;;;;;26.00;49.90;;;;;;5055501;28;20035;-79
2023/06/19 01:48:25;;;;;;;;;;;25.90;50.10;;;;;;5055833;28;19924;-80
2023/06/19 01:50:52;;;;;;;;;;;25.90;50.20;;;;;;5051401;28;20433;-81
2023/06/19 01:53:18;;;;;;;;;;;25.90;50.40;;;;;;5051172;28;19932;-80
2023/06/19 01:55:45;;;;;;;;;;;25.90;50.70;;;;;;5051513;28;20634;-80
2023/06/19 01:58:13;;;;;;;;;;;25.80;50.90;;;;;;5052100;28;20407;-80
2023/06/19 02:00:40;;;;;;;;;;;25.80;51.10;;;;;;5057054;28;19935;-79
2023/06/19 02:03:06;;;;;;;;;;;25.70;51.30;;;;;;5047892;28;19928;-81
2023/06/19 02:05:34;;;;;;;;;;;25.70;51.70;;;;;;5053338;28;19943;-79
2023/06/19 02:08:00;;;;;;;;;;;25.70;52.00;;;;;;5055562;28;19939;-79
2023/06/19 02:10:27;;;;;;;;;;;25.60;52.20;;;;;;5057399;28;19928;-80
2023/06/19 02:12:53;;;;;;;;;;;25.60;52.50;;;;;;5061226;28;20573;-79
2023/06/19 02:15:21;;;;;;;;;;;25.60;52.60;;;;;;5052035;28;19932;-79
2023/06/19 02:17:48;;;;;;;;;;;25.50;52.90;;;;;;5049432;28;19928;-79
2023/06/19 02:20:14;;;;;;;;;;;25.50;53.20;;;;;;5049246;28;19929;-80
2023/06/19 02:22:41;;;;;;;;;;;25.50;53.70;;;;;;5053712;28;20258;-78
2023/06/19 02:25:08;;;;;;;;;;;25.50;54.10;;;;;;5048217;28;20357;-79
2023/06/19 02:27:34;;;;;;;;;;;25.40;54.40;;;;;;5049065;28;20575;-78
2023/06/19 02:30:01;;;;;;;;;;;25.40;54.70;;;;;;5050522;28;20421;-78
2023/06/19 02:32:29;;;;;;;;;;;25.40;55.00;;;;;;5048510;28;20283;-78
2023/06/19 02:34:55;;;;;;;;;;;25.30;55.10;;;;;;5055172;28;19959;-80
2023/06/19 02:37:22;;;;;;;;;;;25.30;55.20;;;;;;5046805;28;19936;-79
2023/06/19 02:39:48;;;;;;;;;;;25.30;55.40;;;;;;5050935;28;19982;-78
2023/06/19 02:42:15;;;;;;;;;;;25.20;55.70;;;;;;5051142;28;19925;-80
2023/06/19 02:44:43;;;;;;;;;;;25.20;55.90;;;;;;5051389;28;19933;-78
2023/06/19 02:47:09;;;;;;;;;;;25.20;56.10;;;;;;5050604;28;20720;-79
2023/06/19 02:49:37;;;;;;;;;;;25.10;56.10;;;;;;5057060;28;19983;-78
2023/06/19 02:52:05;;;;;;;;;;;25.10;56.40;;;;;;5058704;28;19928;-78
2023/06/19 02:54:31;;;;;;;;;;;25.10;56.60;;;;;;5051916;28;19982;-79
2023/06/19 02:56:58;;;;;;;;;;;25.10;56.70;;;;;;5055018;28;19933;-79
2023/06/19 02:59:24;;;;;;;;;;;25.00;56.60;;;;;;5049453;28;20343;-78
2023/06/19 03:01:51;;;;;;;;;;;25.00;56.70;;;;;;5054021;28;20001;-79
2023/06/19 03:04:18;;;;;;;;;;;25.00;56.70;;;;;;5048523;28;19925;-78
2023/06/19 03:06:46;;;;;;;;;;;25.00;56.80;;;;;;5053825;28;19935;-79
2023/06/19 03:09:12;;;;;;;;;;;25.00;57.50;;;;;;5056636;28;19971;-78
2023/06/19 03:11:39;;;;;;;;;;;24.90;56.90;;;;;;5060282;28;20016;-78
2023/06/19 03:14:07;;;;;;;;;;;24.90;57.00;;;;;;5055185;28;19929;-78
2023/06/19 03:16:34;;;;;;;;;;;24.90;57.00;;;;;;5056494;28;19928;-79
2023/06/19 03:19:00;;;;;;;;;;;24.90;57.00;;;;;;5058870;28;19928;-78
2023/06/19 03:21:27;;;;;;;;;;;24.90;57.10;;;;;;5058356;28;20386;-78
2023/06/19 03:23:55;;;;;;;;;;;24.80;57.10;;;;;;5049267;28;19932;-78
2023/06/19 03:26:22;;;;;;;;;;;24.80;57.20;;;;;;5050087;28;19936;-79
2023/06/19 03:28:48;;;;;;;;;;;24.80;57.30;;;;;;5048400;28;19997;-79
2023/06/19 03:31:15;;;;;;;;;;;24.70;57.40;;;;;;5048717;28;20130;-82
2023/06/19 03:33:42;;;;;;;;;;;24.70;57.50;;;;;;5049380;28;19932;-78
2023/06/19 03:36:08;;;;;;;;;;;24.70;57.50;;;;;;5047944;28;26153;-78
2023/06/19 03:38:35;;;;;;;;;;;24.70;57.50;;;;;;5046453;28;19968;-78
2023/06/19 03:41:03;;;;;;;;;;;24.70;57.70;;;;;;5049786;28;19939;-78
2023/06/19 03:43:29;;;;;;;;;;;24.70;57.70;;;;;;5047948;28;19928;-79
2023/06/19 03:45:56;;;;;;;;;;;24.60;57.90;;;;;;5049823;28;19928;-79
2023/06/19 03:48:23;;;;;;;;;;;24.60;58.00;;;;;;5047601;28;19936;-80
2023/06/19 03:50:49;;;;;;;;;;;24.60;58.10;;;;;;5049167;28;20504;-80
2023/06/19 03:53:16;;;;;;;;;;;24.60;58.20;;;;;;5053075;28;19959;-80
2023/06/19 03:55:42;;;;;;;;;;;24.50;58.30;;;;;;5054650;28;19940;-79
2023/06/19 03:58:10;;;;;;;;;;;24.50;58.40;;;;;;5054616;28;20702;-78
2023/06/19 04:00:37;;;;;;;;;;;24.50;58.40;;;;;;5051868;28;19941;-79
2023/06/19 04:03:03;;;;;;;;;;;24.50;58.50;;;;;;5053310;28;19928;-78
2023/06/19 04:05:30;;;;;;;;;;;24.40;58.40;;;;;;5051962;28;19928;-80
2023/06/19 04:07:56;;;;;;;;;;;24.40;58.50;;;;;;5050256;28;19933;-79
2023/06/19 04:10:23;;;;;;;;;;;24.40;58.40;;;;;;5056633;28;19932;-79
2023/06/19 04:12:49;;;;;;;;;;;24.40;58.50;;;;;;5056085;28;20253;-79
2023/06/19 04:15:17;;;;;;;;;;;24.40;58.60;;;;;;5054190;28;19958;-79
2023/06/19 04:17:44;;;;;;;;;;;24.30;58.60;;;;;;5046910;28;19928;-79
2023/06/19 04:20:11;;;;;;;;;;;24.30;58.60;;;;;;5057886;28;19986;-78
2023/06/19 04:22:38;;;;;;;;;;;24.30;59.20;;;;;;5054378;28;19939;-78
2023/06/19 04:25:05;;;;;;;;;;;24.30;58.80;;;;;;5054885;28;19935;-79
2023/06/19 04:27:31;;;;;;;;;;;24.30;58.80;;;;;;5049898;28;19929;-79
2023/06/19 04:29:58;;;;;;;;;;;24.20;58.80;;;;;;5047582;28;19936;-78
2023/06/19 04:32:25;;;;;;;;;;;24.20;58.80;;;;;;5047444;28;19940;-79
2023/06/19 04:34:52;;;;;;;;;;;24.20;58.90;;;;;;5048546;28;20062;-79
2023/06/19 04:37:19;;;;;;;;;;;24.20;58.90;;;;;;5051186;28;19933;-78
2023/06/19 04:39:45;;;;;;;;;;;24.20;59.00;;;;;;5049239;28;20007;-78
2023/06/19 04:42:19;;;;;;;;;;;24.20;59.00;;;;;;5046905;28;19928;-79
2023/06/19 04:44:45;;;;;;;;;;;24.10;59.10;;;;;;5048424;28;20394;-79
2023/06/19 04:47:12;;;;;;;;;;;24.10;59.10;;;;;;5058802;28;19928;-80
2023/06/19 04:49:40;;;;;;;;;;;24.00;59.10;;;;;;5047872;28;20279;-80
2023/06/19 04:52:07;;;;;;;;;;;24.00;59.20;;;;;;5050893;28;19935;-79
2023/06/19 04:54:33;;;;;;;;;;;24.00;59.30;;;;;;5049863;28;19932;-78
2023/06/19 04:57:00;;;;;;;;;;;24.00;59.60;;;;;;5053434;28;19956;-79
2023/06/19 04:59:26;;;;;;;;;;;23.70;60.60;;;;;;5058721;28;20503;-79
2023/06/19 05:01:54;;;;;;;;;;;23.60;60.90;;;;;;5045083;28;19990;-79
2023/06/19 05:04:22;;;;;;;;;;;23.60;60.90;;;;;;5047298;28;19928;-80
2023/06/19 05:06:50;;;;;;;;;;;23.50;60.80;;;;;;5045580;28;20105;-79
2023/06/19 05:09:16;;;;;;;;;;;23.50;60.90;;;;;;5050208;28;20611;-79
2023/06/19 05:11:43;;;;;;;;;;;23.50;60.80;;;;;;5044987;28;20007;-80
2023/06/19 05:14:10;;;;;;;;;;;23.60;60.80;;;;;;5047665;28;19937;-79
2023/06/19 05:16:36;;;;;;;;;;;23.50;60.70;;;;;;5045162;28;19933;-78
2023/06/19 05:19:03;;;;;;;;;;;23.50;60.70;;;;;;5048141;28;19939;-79
2023/06/19 05:21:29;;;;;;;;;;;23.50;60.70;;;;;;5049181;28;19935;-78
2023/06/19 05:23:57;;;;;;;;;;;23.60;60.60;;;;;;5049521;28;19954;-79
2023/06/19 05:26:25;;;;;;;;;;;23.60;60.60;;;;;;5047592;28;20271;-79
2023/06/19 05:28:52;;;;;;;;;;;23.50;60.60;;;;;;5049721;28;20357;-79
2023/06/19 05:31:19;;;;;;;;;;;23.60;60.60;;;;;;5048957;28;20872;-78
2023/06/19 05:33:45;;;;;;;;;;;23.60;60.50;;;;;;5052913;28;19935;-80
2023/06/19 05:36:12;;;;;;;;;;;23.60;60.60;;;;;;5052047;28;19936;-79
2023/06/19 05:38:38;;;;;;;;;;;23.60;60.50;;;;;;5054567;28;19936;-72
2023/06/19 05:41:06;;;;;;;;;;;23.60;60.50;;;;;;5055432;28;19928;-72
2023/06/19 05:43:33;;;;;;;;;;;23.60;60.50;;;;;;5053543;28;19935;-72
2023/06/19 05:46:00;;;;;;;;;;;23.60;60.60;;;;;;5050806;28;19946;-72
2023/06/19 05:48:26;;;;;;;;;;;23.60;60.70;;;;;;5051605;28;19936;-72
2023/06/19 05:50:53;;;;;;;;;;;23.60;60.70;;;;;;5051650;28;19932;-74
2023/06/19 05:53:19;;;;;;;;;;;23.60;60.70;;;;;;5051996;28;19933;-72
2023/06/19 05:55:46;;;;;;;;;;;23.60;60.80;;;;;;5049173;28;20603;-72
2023/06/19 05:58:14;;;;;;;;;;;23.60;60.90;;;;;;5059428;28;19977;-72
2023/06/19 06:00:40;;;;;;;;;;;23.60;60.90;;;;;;5056441;28;19929;-71
2023/06/19 06:03:07;;;;;;;;;;;23.60;60.70;;;;;;5054099;28;19928;-71
2023/06/19 06:05:36;;;;;;;;;;;23.50;60.70;;;;;;5050670;28;19933;-72
2023/06/19 06:08:02;;;;;;;;;;;23.50;60.90;;;;;;5052063;28;20369;-72
2023/06/19 06:10:29;;;;;;;;;;;23.50;60.90;;;;;;5051938;28;19928;-72
2023/06/19 06:12:56;;;;;;;;;;;23.50;60.90;;;;;;5043370;28;19928;-71
2023/06/19 06:15:23;;;;;;;;;;;23.50;61.00;;;;;;5048897;28;19925;-71
2023/06/19 06:17:50;;;;;;;;;;;23.50;61.30;;;;;;5053259;28;19928;-71
2023/06/19 06:20:17;;;;;;;;;;;23.50;61.40;;;;;;5052855;28;19982;-72
2023/06/19 06:22:43;;;;;;;;;;;23.50;61.50;;;;;;5053784;28;19994;-72
2023/06/19 06:25:11;;;;;;;;;;;23.50;61.50;;;;;;5054738;28;19933;-72
2023/06/19 06:27:37;;;;;;;;;;;23.50;61.70;;;;;;5051515;28;20011;-73
2023/06/19 06:30:04;;;;;;;;;;;23.60;61.80;;;;;;5048580;28;19933;-71
2023/06/19 06:32:33;;;;;;;;;;;23.60;61.60;;;;;;5052865;28;19974;-73
2023/06/19 06:35:00;;;;;;;;;;;23.60;62.00;;;;;;5045490;28;19964;-72
2023/06/19 06:37:26;;;;;;;;;;;23.60;62.00;;;;;;5062747;28;19986;-72
2023/06/19 06:39:53;;;;;;;;;;;23.60;62.00;;;;;;5052477;28;20360;-71
2023/06/19 06:42:19;;;;;;;;;;;23.60;62.10;;;;;;5058238;28;19933;-72
2023/06/19 06:44:46;;;;;;;;;;;23.60;62.10;;;;;;5064152;28;19936;-72
2023/06/19 06:47:13;;;;;;;;;;;23.70;62.30;;;;;;5059522;28;19928;-74
2023/06/19 06:49:40;;;;;;;;;;;23.60;62.00;;;;;;5060318;28;20688;-71
2023/06/19 06:52:07;;;;;;;;;;;23.70;62.20;;;;;;5053511;28;19934;-72
2023/06/19 06:54:34;;;;;;;;;;;23.70;62.70;;;;;;5048705;28;20460;-72
2023/06/19 06:57:00;;;;;;;;;;;23.70;62.30;;;;;;5061853;28;19929;-79
2023/06/19 06:59:27;;;;;;;;;;;23.70;62.10;;;;;;5052695;28;19932;-78
2023/06/19 07:01:55;;;;;;;;;;;23.70;62.30;;;;;;5036859;28;19939;-77
2023/06/19 07:04:22;;;;;;;;;;;23.80;62.30;;;;;;5045904;28;19932;-79
2023/06/19 07:06:51;;;;;;;;;;;23.80;62.40;;;;;;5039755;28;19959;-77
2023/06/19 07:09:17;;;;;;;;;;;23.80;62.50;;;;;;5038534;28;19982;-78
2023/06/19 07:11:44;;;;;;;;;;;23.80;62.70;;;;;;5037063;28;19936;-78
2023/06/19 07:14:10;;;;;;;;;;;23.80;62.60;;;;;;5038370;28;19929;-78
2023/06/19 07:16:37;;;;;;;;;;;23.80;62.40;;;;;;5036207;28;19925;-78
2023/06/19 07:19:03;;;;;;;;;;;23.80;62.40;;;;;;5037241;28;20681;-78
2023/06/19 07:21:30;;;;;;;;;;;23.80;62.40;;;;;;5037740;28;19936;-77
2023/06/19 07:23:58;;;;;;;;;;;23.80;62.40;;;;;;5038063;28;19982;-78
2023/06/19 07:26:25;;;;;;;;;;;23.80;62.20;;;;;;5035017;28;19940;-77
2023/06/19 07:28:51;;;;;;;;;;;23.90;62.20;;;;;;5053503;28;19928;-78
2023/06/19 07:31:18;;;;;;;;;;;23.90;62.20;;;;;;5056852;28;20739;-79
2023/06/19 07:33:44;;;;;;;;;;;23.90;62.20;;;;;;5047363;28;19928;-78
2023/06/19 07:36:13;;;;;;;;;;;24.00;62.20;;;;;;5052387;28;20395;-78
2023/06/19 07:38:40;;;;;;;;;;;24.00;62.10;;;;;;5052993;28;20024;-78
2023/06/19 07:41:09;;;;;;;;;;;23.90;62.10;;;;;;5051998;28;19936;-78
2023/06/19 07:43:36;;;;;;;;;;;24.00;62.00;;;;;;5053194;28;19935;-79
2023/06/19 07:46:02;;;;;;;;;;;24.00;61.90;;;;;;5050757;28;20655;-78
2023/06/19 07:48:29;;;;;;;;;;;24.00;62.10;;;;;;5049457;28;19979;-77
2023/06/19 07:50:56;;;;;;;;;;;24.00;62.20;;;;;;5057673;28;19932;-80
2023/06/19 07:53:22;;;;;;;;;;;24.00;62.10;;;;;;5057433;28;20331;-79
2023/06/19 07:55:49;;;;;;;;;;;24.00;62.00;;;;;;5064000;28;19928;-77
2023/06/19 07:58:18;;;;;;;;;;;24.10;62.00;;;;;;5049149;28;19963;-77
2023/06/19 08:00:44;;;;;;;;;;;24.10;61.80;;;;;;5057843;28;19932;-80
2023/06/19 08:03:11;;;;;;;;;;;24.10;61.80;;;;;;5052219;28;19936;-79
2023/06/19 08:05:38;;;;;;;;;;;24.10;61.80;;;;;;5058188;28;20130;-77
2023/06/19 08:08:04;;;;;;;;;;;24.10;62.00;;;;;;5056582;28;19975;-78
2023/06/19 08:10:31;;;;;;;;;;;24.20;62.10;;;;;;5053669;28;19974;-78
2023/06/19 08:12:57;;;;;;;;;;;24.10;61.90;;;;;;5056097;28;20860;-78
2023/06/19 08:15:25;;;;;;;;;;;24.20;62.20;;;;;;5049008;28;19937;-79
2023/06/19 08:17:52;;;;;;;;;;;24.20;62.30;;;;;;5056135;28;19951;-78
2023/06/19 08:20:19;;;;;;;;;;;24.20;62.10;;;;;;5059845;28;19936;-78
2023/06/19 08:22:46;;;;;;;;;;;24.20;62.70;;;;;;5059454;28;19939;-78
2023/06/19 08:25:12;;;;;;;;;;;24.30;62.30;;;;;;5054743;28;19936;-78
2023/06/19 08:27:39;;;;;;;;;;;24.30;62.10;;;;;;5053981;28;19933;-78
2023/06/19 08:30:06;;;;;;;;;;;24.30;62.00;;;;;;5057972;28;20341;-78
2023/06/19 08:32:34;;;;;;;;;;;24.30;61.90;;;;;;5058268;28;20593;-78
2023/06/19 08:35:01;;;;;;;;;;;24.40;62.00;;;;;;5047357;28;19934;-78
2023/06/19 08:37:27;;;;;;;;;;;24.40;62.10;;;;;;5050171;28;19936;-78
2023/06/19 08:39:55;;;;;;;;;;;24.40;62.10;;;;;;5046171;28;20604;-78
2023/06/19 08:42:22;;;;;;;;;;;24.40;62.10;;;;;;5048572;28;19935;-78
2023/06/19 08:44:49;;;;;;;;;;;24.40;62.90;;;;;;5047139;28;19928;-79
2023/06/19 08:47:15;;;;;;;;;;;24.50;62.40;;;;;;5047944;28;19940;-77
2023/06/19 08:49:43;;;;;;;;;;;24.50;62.40;;;;;;5048637;28;19933;-78
2023/06/19 08:52:10;;;;;;;;;;;24.50;62.40;;;;;;5049956;28;19935;-78
2023/06/19 08:54:43;;;;;;;;;;;24.50;62.30;;;;;;5048397;28;19928;-79
2023/06/19 08:57:10;;;;;;;;;;;24.60;62.30;;;;;;5044544;28;19935;-79
2023/06/19 08:59:37;;;;;;;;;;;24.60;62.30;;;;;;5052379;28;20444;-79
2023/06/19 09:02:03;;;;;;;;;;;24.60;62.30;;;;;;5053703;28;19933;-78
2023/06/19 09:04:30;;;;;;;;;;;24.70;62.40;;;;;;5057965;28;19943;-78
2023/06/19 09:06:59;;;;;;;;;;;24.70;63.20;;;;;;5056238;28;19964;-78
2023/06/19 09:09:27;;;;;;;;;;;24.70;62.40;;;;;;5054150;28;20047;-77
2023/06/19 09:12:00;;;;;;;;;;;24.80;62.30;;;;;;5050412;28;19928;-78
2023/06/19 09:14:34;;;;;;;;;;;24.80;62.20;;;;;;5053373;28;20027;-78
2023/06/19 09:17:01;;;;;;;;;;;24.80;62.20;;;;;;5056994;28;19976;-78
2023/06/19 09:19:28;;;;;;;;;;;24.90;62.10;;;;;;5057830;28;19932;-78
2023/06/19 09:22:03;;;;;;;;;;;24.90;62.00;;;;;;5049092;28;19929;-79
2023/06/19 09:24:39;;;;;;;;;;;24.90;62.00;;;;;;5053617;28;19939;-78
2023/06/19 09:27:11;;;;;;;;;;;24.90;61.80;;;;;;5053632;28;19962;-77
2023/06/19 09:29:39;;;;;;;;;;;24.90;61.70;;;;;;5051651;28;19936;-78
2023/06/19 09:32:14;;;;;;;;;;;25.00;61.70;;;;;;5053635;28;20047;-79
2023/06/19 09:34:41;;;;;;;;;;;25.00;61.50;;;;;;5059342;28;19924;-78
2023/06/19 09:37:09;;;;;;;;;;;25.00;61.50;;;;;;5050143;28;19977;-78
2023/06/19 09:39:37;;;;;;;;;;;25.10;61.50;;;;;;5051599;28;19929;-78
2023/06/19 09:42:04;;;;;;;;;;;25.10;61.40;;;;;;5051218;28;19924;-78
2023/06/19 09:44:32;;;;;;;;;;;25.10;61.50;;;;;;5050841;28;19928;-78
2023/06/19 09:47:00;;;;;;;;;;;25.10;61.30;;;;;;5050196;28;19990;-78
2023/06/19 09:49:29;;;;;;;;;;;25.20;61.50;;;;;;5050942;28;19941;-76
2023/06/19 09:51:55;;;;;;;;;;;25.20;61.10;;;;;;5053098;28;19978;-78
2023/06/19 09:54:25;;;;;;;;;;;25.20;61.00;;;;;;5053483;28;19933;-78
2023/06/19 09:56:55;;;;;;;;;;;25.30;61.00;;;;;;5053070;28;20366;-78
2023/06/19 09:59:22;;;;;;;;;;;25.40;60.70;;;;;;5057003;28;20438;-79
2023/06/19 10:01:49;;;;;;;;;;;25.40;60.40;;;;;;5050831;28;19929;-77
2023/06/19 10:04:17;;;;;;;;;;;25.50;60.40;;;;;;5056216;28;19990;-78
2023/06/19 10:06:45;;;;;;;;;;;25.50;60.30;;;;;;5051852;28;19925;-79
2023/06/19 10:09:12;;;;;;;;;;;25.60;60.20;;;;;;5056404;28;19924;-78
2023/06/19 10:11:47;;;;;;;;;;;25.60;59.80;;;;;;5055872;28;19931;-78
2023/06/19 10:14:14;;;;;;;;;;;25.70;59.90;;;;;;5050540;28;19935;-79
2023/06/19 10:16:41;;;;;;;;;;;25.80;59.80;;;;;;5052743;28;19931;-78
2023/06/19 10:19:12;;;;;;;;;;;25.80;59.10;;;;;;5054751;28;20001;-78
2023/06/19 10:21:44;;;;;;;;;;;25.90;58.90;;;;;;5059315;28;19933;-78
2023/06/19 10:24:14;;;;;;;;;;;25.90;58.80;;;;;;5056296;28;20278;-78
2023/06/19 10:26:41;;;;;;;;;;;25.90;58.60;;;;;;5050521;28;19940;-80
2023/06/19 10:29:15;;;;;;;;;;;26.00;58.60;;;;;;5059310;28;19939;-79
2023/06/19 10:31:42;;;;;;;;;;;26.10;58.50;;;;;;5050547;28;20694;-79
2023/06/19 10:34:09;;;;;;;;;;;26.10;58.40;;;;;;5049148;28;21125;-79
2023/06/19 10:36:36;;;;;;;;;;;26.10;58.30;;;;;;5048094;28;20031;-78
2023/06/19 10:39:02;;;;;;;;;;;26.20;58.30;;;;;;5055535;28;19928;-79
2023/06/19 10:41:30;;;;;;;;;;;26.20;58.20;;;;;;5055138;28;19928;-79
2023/06/19 10:43:57;;;;;;;;;;;26.30;58.30;;;;;;5050051;28;19935;-79
2023/06/19 10:46:29;;;;;;;;;;;26.30;58.30;;;;;;5059121;28;19929;-79
2023/06/19 10:49:00;;;;;;;;;;;26.40;58.20;;;;;;5059232;28;20027;-79
2023/06/19 10:51:27;;;;;;;;;;;26.40;58.10;;;;;;5057430;28;20036;-79
2023/06/19 10:53:54;;;;;;;;;;;26.40;57.90;;;;;;5047285;28;19936;-80
2023/06/19 10:56:21;;;;;;;;;;;26.50;57.90;;;;;;5054936;28;19924;-79
2023/06/19 10:58:47;;;;;;;;;;;26.50;57.70;;;;;;5046963;28;19941;-79
2023/06/19 11:01:14;;;;;;;;;;;26.50;57.70;;;;;;5046630;28;20341;-79
2023/06/19 11:03:42;;;;;;;;;;;26.50;57.70;;;;;;5046533;28;19933;-79
2023/06/19 11:06:08;;;;;;;;;;;26.50;57.60;;;;;;5046466;28;19928;-78
2023/06/19 11:08:35;;;;;;;;;;;26.60;57.70;;;;;;5046464;28;19932;-79
2023/06/19 11:11:03;;;;;;;;;;;26.60;57.70;;;;;;5047969;28;19958;-80
2023/06/19 11:13:29;;;;;;;;;;;26.70;57.90;;;;;;5046573;28;19935;-79
2023/06/19 11:15:56;;;;;;;;;;;26.70;57.70;;;;;;5047894;28;20490;-80
2023/06/19 11:18:22;;;;;;;;;;;26.70;57.60;;;;;;5049109;28;20402;-79
2023/06/19 11:20:51;;;;;;;;;;;26.70;57.60;;;;;;5043759;28;19940;-79
2023/06/19 11:23:18;;;;;;;;;;;26.80;57.50;;;;;;5047978;28;20117;-79
2023/06/19 11:25:44;;;;;;;;;;;26.80;57.50;;;;;;5046381;28;19924;-79
2023/06/19 11:28:14;;;;;;;;;;;26.80;57.10;;;;;;5050012;28;19924;-79
2023/06/19 11:30:43;;;;;;;;;;;26.90;57.10;;;;;;5065875;28;19925;-79
2023/06/19 11:33:16;;;;;;;;;;;27.00;56.90;;;;;;5052034;28;19929;-79
2023/06/19 11:35:47;;;;;;;;;;;27.00;56.90;;;;;;5049169;28;19937;-79
2023/06/19 11:38:18;;;;;;;;;;;27.10;57.00;;;;;;5057440;28;20406;-79
2023/06/19 11:40:45;;;;;;;;;;;27.10;56.80;;;;;;5052394;28;19939;-79
2023/06/19 11:43:12;;;;;;;;;;;27.20;56.50;;;;;;5055342;28;20049;-79
2023/06/19 11:45:48;;;;;;;;;;;27.20;56.40;;;;;;5060165;28;19928;-79
2023/06/19 11:48:21;;;;;;;;;;;27.30;56.10;;;;;;5064668;28;19924;-79
2023/06/19 11:50:48;;;;;;;;;;;27.40;55.90;;;;;;5064382;28;19933;-79
2023/06/19 11:53:15;;;;;;;;;;;27.40;55.80;;;;;;5057881;28;19954;-79
2023/06/19 11:55:43;;;;;;;;;;;27.50;55.80;;;;;;5054725;28;19928;-79
2023/06/19 11:58:10;;;;;;;;;;;27.50;55.70;;;;;;5052947;28;19928;-79
2023/06/19 12:00:37;;;;;;;;;;;27.60;55.50;;;;;;5051643;28;19929;-80
2023/06/19 12:03:04;;;;;;;;;;;27.60;55.40;;;;;;5061831;28;20284;-79
2023/06/19 12:05:30;;;;;;;;;;;27.70;55.40;;;;;;5056572;28;19982;-79
2023/06/19 12:07:57;;;;;;;;;;;27.70;55.40;;;;;;5052616;28;19978;-79
2023/06/19 12:10:24;;;;;;;;;;;27.80;55.50;;;;;;5057245;28;19959;-79
2023/06/19 12:12:52;;;;;;;;;;;27.80;55.30;;;;;;5061206;28;19937;-79
2023/06/19 12:15:18;;;;;;;;;;;27.80;55.20;;;;;;5053438;28;21304;-79
2023/06/19 12:17:46;;;;;;;;;;;27.80;55.00;;;;;;5056236;28;20793;-79
2023/06/19 12:20:13;;;;;;;;;;;27.90;55.00;;;;;;5063047;28;19935;-79
2023/06/19 12:22:40;;;;;;;;;;;27.90;54.90;;;;;;5055466;28;19939;-78
2023/06/19 12:25:07;;;;;;;;;;;27.90;54.80;;;;;;5057546;28;20351;-79
2023/06/19 12:27:34;;;;;;;;;;;27.90;54.50;;;;;;5052832;28;19932;-80
2023/06/19 12:30:02;;;;;;;;;;;28.00;54.60;;;;;;5051700;28;19929;-79
2023/06/19 12:32:28;;;;;;;;;;;28.00;54.50;;;;;;5050916;28;19964;-78
2023/06/19 12:34:55;;;;;;;;;;;28.10;54.60;;;;;;5049244;28;20062;-79
2023/06/19 12:37:22;;;;;;;;;;;28.20;54.50;;;;;;5052184;28;20474;-79
2023/06/19 12:39:48;;;;;;;;;;;28.20;54.20;;;;;;5062357;28;19974;-79
2023/06/19 12:42:15;;;;;;;;;;;28.30;54.00;;;;;;5057572;28;20792;-80
2023/06/19 12:44:42;;;;;;;;;;;28.30;53.80;;;;;;5059501;28;19936;-79
2023/06/19 12:47:10;;;;;;;;;;;28.40;53.80;;;;;;5049390;28;19928;-80
2023/06/19 12:49:37;;;;;;;;;;;28.40;53.70;;;;;;5050295;28;20326;-79
2023/06/19 12:52:04;;;;;;;;;;;28.50;53.70;;;;;;5050685;28;19982;-80
2023/06/19 12:54:31;;;;;;;;;;;28.50;53.70;;;;;;5047570;28;19936;-79
2023/06/19 12:56:58;;;;;;;;;;;28.50;53.40;;;;;;5052184;28;19933;-80
2023/06/19 12:59:24;;;;;;;;;;;28.60;53.50;;;;;;5051744;28;19986;-80
2023/06/19 13:01:51;;;;;;;;;;;28.60;53.60;;;;;;5050001;28;19942;-80
2023/06/19 13:04:19;;;;;;;;;;;28.60;53.40;;;;;;5050540;28;20410;-81
2023/06/19 13:06:45;;;;;;;;;;;28.60;53.40;;;;;;5048941;28;20472;-80
2023/06/19 13:09:12;;;;;;;;;;;28.60;53.40;;;;;;5050597;28;19978;-80
2023/06/19 13:11:38;;;;;;;;;;;28.70;53.10;;;;;;5047865;28;19932;-80
2023/06/19 13:14:05;;;;;;;;;;;28.70;53.00;;;;;;5047424;28;19932;-81
2023/06/19 13:16:32;;;;;;;;;;;28.70;53.10;;;;;;5045714;28;19936;-80
2023/06/19 13:18:58;;;;;;;;;;;28.80;52.30;;;;;;5057256;28;19933;-80
2023/06/19 13:21:26;;;;;;;;;;;28.80;52.00;;;;;;5054226;28;19985;-80
2023/06/19 13:23:52;;;;;;;;;;;28.90;52.30;;;;;;5061776;28;19940;-80
2023/06/19 13:26:19;;;;;;;;;;;28.90;52.30;;;;;;5049272;28;19940;-80
2023/06/19 13:28:46;;;;;;;;;;;29.00;52.10;;;;;;5053217;28;19935;-80
2023/06/19 13:31:12;;;;;;;;;;;29.00;52.10;;;;;;5055051;28;20020;-78
2023/06/19 13:33:39;;;;;;;;;;;29.00;52.10;;;;;;5049399;28;19935;-74
2023/06/19 13:36:05;;;;;;;;;;;29.10;51.90;;;;;;5055400;28;20433;-74
2023/06/19 13:38:33;;;;;;;;;;;29.10;52.00;;;;;;5053067;28;19939;-77
2023/06/19 13:41:00;;;;;;;;;;;29.20;51.90;;;;;;5055181;28;19928;-75
2023/06/19 13:43:26;;;;;;;;;;;29.30;51.70;;;;;;5060101;28;19986;-74
2023/06/19 13:45:53;;;;;;;;;;;29.30;51.60;;;;;;5051276;28;19985;-76
2023/06/19 13:48:21;;;;;;;;;;;29.40;51.60;;;;;;5048667;28;20324;-75
2023/06/19 13:50:48;;;;;;;;;;;29.40;51.50;;;;;;5050856;28;20453;-74
2023/06/19 13:53:14;;;;;;;;;;;29.40;51.40;;;;;;5059576;28;19978;-73
2023/06/19 13:55:42;;;;;;;;;;;29.50;51.40;;;;;;5052400;28;20593;-73
2023/06/19 13:58:08;;;;;;;;;;;29.60;51.10;;;;;;5058875;28;19932;-72
2023/06/19 14:00:36;;;;;;;;;;;29.60;51.00;;;;;;5054620;28;20543;-74
2023/06/19 14:03:06;;;;;;;;;;;29.70;50.70;;;;;;5053624;28;20031;-74
2023/06/19 14:05:32;;;;;;;;;;;29.70;50.70;;;;;;5050824;28;19932;-72
2023/06/19 14:07:59;;;;;;;;;;;29.80;50.70;;;;;;5049299;28;19935;-74
2023/06/19 14:10:26;;;;;;;;;;;29.80;50.50;;;;;;5054460;28;20688;-74
2023/06/19 14:12:54;;;;;;;;;;;29.90;50.20;;;;;;5052540;28;19993;-75
2023/06/19 14:15:20;;;;;;;;;;;29.90;50.20;;;;;;5054058;28;19991;-75